Time;durP1;ratioP1;P1;durP2;ratioP2;P2;SDS_P1;SDS_P2;PMS_P1;PMS_P2;Temp;Humidity;BMP_temperature;BMP_pressure;BME280_temperature;BME280_humidity;BME280_pressure;Samples;Min_cycle;Max_cycle;Signal;HPM_P1;HPM_P2
2022/10/23 00:00:21;;;;;;;23.20;17.40;;;;;;;12.93;89.54;99990.23;100223;1294;109497;-73
2022/10/23 00:03:08;;;;;;;22.20;17.20;;;;;;;12.92;89.56;99990.96;100785;1294;109997;-73
2022/10/23 00:05:39;;;;;;;23.90;17.60;;;;;;;12.92;89.49;99992.36;100212;1294;96565;-73
2022/10/23 00:08:06;;;;;;;27.90;18.00;;;;;;;12.91;89.59;99988.90;100216;1295;107040;-73
2022/10/23 00:10:33;;;;;;;20.00;17.00;;;;;;;12.92;89.60;99990.82;100113;1288;139860;-73
2022/10/23 00:13:01;;;;;;;24.00;17.90;;;;;;;12.94;89.74;99993.70;100181;1288;110133;-72
2022/10/23 00:15:28;;;;;;;24.50;17.20;;;;;;;12.95;89.65;99996.43;100051;1288;139955;-73
2022/10/23 00:17:55;;;;;;;23.70;16.60;;;;;;;12.97;89.73;99997.88;100434;1295;96440;-73
2022/10/23 00:20:22;;;;;;;21.40;16.30;;;;;;;13.01;89.72;99999.13;100316;1294;106621;-73
2022/10/23 00:22:49;;;;;;;25.10;17.20;;;;;;;13.05;89.71;99998.78;100265;1288;138833;-73
2022/10/23 00:25:17;;;;;;;22.70;16.70;;;;;;;13.07;89.49;100004.96;100765;1294;108592;-73
2022/10/23 00:27:44;;;;;;;22.10;17.20;;;;;;;13.09;89.50;100003.42;100045;1289;137956;-73
2022/10/23 00:30:13;;;;;;;22.70;17.30;;;;;;;13.11;89.59;100001.27;100040;1298;204807;-72
2022/10/23 00:32:41;;;;;;;26.10;17.30;;;;;;;13.10;89.46;100004.83;100286;1292;108146;-72
2022/10/23 00:35:09;;;;;;;22.70;17.00;;;;;;;13.08;89.36;100010.49;100086;1294;140014;-73
2022/10/23 00:37:36;;;;;;;24.30;16.90;;;;;;;13.07;89.38;100005.98;100330;1287;108807;-73
2022/10/23 00:40:03;;;;;;;24.10;16.60;;;;;;;13.07;89.40;100011.40;100066;1288;138464;-74
2022/10/23 00:42:30;;;;;;;21.30;16.00;;;;;;;13.08;89.47;100014.86;100169;1291;96422;-73
2022/10/23 00:45:23;;;;;;;21.10;16.00;;;;;;;13.07;89.36;100016.09;100204;1289;108347;-74
2022/10/23 00:47:50;;;;;;;22.60;16.80;;;;;;;13.06;89.47;100016.49;100165;1284;96505;-74
2022/10/23 00:50:19;;;;;;;25.30;16.30;;;;;;;13.07;89.50;100019.60;100190;1287;108964;-73
2022/10/23 00:52:50;;;;;;;22.10;16.50;;;;;;;13.11;89.60;100022.06;100053;1289;138768;-74
2022/10/23 00:55:21;;;;;;;26.00;17.80;;;;;;;13.12;89.59;100023.59;100395;1294;96338;-73
2022/10/23 00:57:50;;;;;;;25.80;18.40;;;;;;;13.11;89.47;100025.71;100310;1295;137865;-74
2022/10/23 01:00:23;;;;;;;25.90;18.00;;;;;;;13.10;89.57;100031.15;100167;1293;96366;-73
2022/10/23 01:02:50;;;;;;;26.30;17.80;;;;;;;13.10;89.49;100034.48;100365;1302;109358;-74
2022/10/23 01:05:17;;;;;;;25.70;17.90;;;;;;;13.08;89.64;100037.57;100036;1288;138800;-74
2022/10/23 01:07:52;;;;;;;24.80;16.50;;;;;;;13.06;89.63;100037.80;100202;1295;96478;-74
2022/10/23 01:10:30;;;;;;;25.90;17.10;;;;;;;13.07;89.78;100040.56;100449;1294;138295;-74
2022/10/23 01:13:06;;;;;;;24.10;16.70;;;;;;;13.06;89.83;100040.42;100127;1294;96629;-74
2022/10/23 01:15:37;;;;;;;28.00;18.20;;;;;;;13.07;89.82;100045.42;100604;1288;139708;-74
2022/10/23 01:18:08;;;;;;;28.00;18.60;;;;;;;13.10;90.00;100048.61;101301;1288;106946;-74
2022/10/23 01:20:43;;;;;;;27.40;18.10;;;;;;;13.11;90.06;100049.63;100234;1294;96465;-74
2022/10/23 01:23:43;;;;;;;30.10;18.30;;;;;;;13.11;90.14;100051.36;100455;1296;138122;-74
2022/10/23 01:26:33;;;;;;;26.40;17.60;;;;;;;13.12;90.12;100053.80;100145;1294;96475;-74
2022/10/23 01:29:04;;;;;;;27.90;18.10;;;;;;;13.11;90.08;100056.80;100061;1295;138544;-73
2022/10/23 01:31:36;;;;;;;29.50;17.70;;;;;;;13.11;90.21;100059.59;100176;1288;107844;-74
2022/10/23 01:34:09;;;;;;;27.00;17.70;;;;;;;13.13;90.34;100058.30;100011;1294;138544;-74
2022/10/23 01:36:43;;;;;;;28.80;18.40;;;;;;;13.13;90.22;100058.77;100112;1292;106234;-74
2022/10/23 01:39:16;;;;;;;30.00;18.00;;;;;;;13.14;90.36;100054.90;100407;1296;95005;-74
2022/10/23 01:41:46;;;;;;;29.20;17.80;;;;;;;13.17;90.39;100054.79;100205;1288;108956;-74
2022/10/23 01:44:26;;;;;;;27.80;17.30;;;;;;;13.19;90.22;100055.73;100141;1289;108105;-74
2022/10/23 01:46:55;;;;;;;26.70;18.30;;;;;;;13.21;90.33;100055.63;100388;1292;138373;-74
2022/10/23 01:49:26;;;;;;;26.30;18.20;;;;;;;13.23;90.21;100057.67;100228;1294;108005;-74
2022/10/23 01:52:01;;;;;;;31.20;18.20;;;;;;;13.24;90.21;100054.13;100097;1294;138606;-73
2022/10/23 01:54:33;;;;;;;32.40;17.70;;;;;;;13.26;90.10;100057.16;100165;1292;110181;-74
2022/10/23 01:57:02;;;;;;;29.90;17.70;;;;;;;13.26;90.05;100057.33;100377;1294;107124;-74
2022/10/23 01:59:34;;;;;;;32.10;19.00;;;;;;;13.26;90.05;100056.80;100641;1287;139337;-73
2022/10/23 02:02:03;;;;;;;31.40;18.50;;;;;;;13.26;90.18;100059.59;100553;1294;107016;-73
2022/10/23 02:04:34;;;;;;;27.80;19.60;;;;;;;13.27;89.97;100059.73;100053;1288;138879;-73
2022/10/23 02:07:01;;;;;;;27.80;18.80;;;;;;;13.27;90.00;100063.41;101058;1296;108999;-73
2022/10/23 02:09:29;;;;;;;30.20;18.50;;;;;;;13.27;89.88;100060.95;100639;1287;138697;-73
2022/10/23 02:12:02;;;;;;;34.40;19.40;;;;;;;13.28;89.95;100059.88;100235;1292;96974;-73
2022/10/23 02:14:39;;;;;;;29.40;19.90;;;;;;;13.28;89.84;100062.13;101276;1295;107920;-73
2022/10/23 02:17:15;;;;;;;30.50;20.40;;;;;;;13.28;89.83;100067.35;101492;1299;138508;-74
2022/10/23 02:19:49;;;;;;;36.60;21.30;;;;;;;13.29;89.74;100070.31;101620;1287;110729;-74
2022/10/23 02:22:22;;;;;;;30.90;19.50;;;;;;;13.29;89.81;100070.65;100324;1293;140131;-74
2022/10/23 02:24:53;;;;;;;32.80;20.50;;;;;;;13.30;89.77;100072.89;100414;1292;96942;-74
2022/10/23 02:27:26;;;;;;;37.00;20.60;;;;;;;13.28;89.72;100077.66;100123;1296;138375;-73
2022/10/23 02:30:01;;;;;;;32.00;20.50;;;;;;;13.29;89.67;100080.27;100372;1296;96782;-73
2022/10/23 02:32:30;;;;;;;33.80;20.90;;;;;;;13.28;89.48;100081.34;100150;1292;110285;-73
2022/10/23 02:34:57;;;;;;;30.00;20.40;;;;;;;13.28;89.62;100089.36;100168;1295;138509;-73
2022/10/23 02:37:25;;;;;;;32.80;21.90;;;;;;;13.28;89.57;100089.55;100819;1295;96968;-73
2022/10/23 02:39:52;;;;;;;30.40;20.10;;;;;;;13.26;89.51;100088.04;100032;1296;138481;-73
2022/10/23 02:42:24;;;;;;;37.80;22.40;;;;;;;13.26;89.56;100089.10;100570;1289;96583;-74
2022/10/23 02:45:01;;;;;;;35.70;22.10;;;;;;;13.26;89.54;100091.38;100846;1288;109947;-74
2022/10/23 02:47:39;;;;;;;35.80;22.10;;;;;;;13.24;89.47;100093.20;100934;1281;139745;-74
2022/10/23 02:50:16;;;;;;;34.80;21.20;;;;;;;13.23;89.61;100094.13;100237;1289;96355;-74
2022/10/23 02:52:52;;;;;;;36.90;22.30;;;;;;;13.22;89.64;100092.06;100084;1296;138249;-73
2022/10/23 02:55:31;;;;;;;36.10;21.90;;;;;;;13.20;89.60;100094.08;100267;1292;96465;-73
2022/10/23 02:58:03;;;;;;;35.10;21.80;;;;;;;13.20;89.58;100097.95;100375;1294;138798;-74
2022/10/23 03:03:28;;;;;;;36.40;22.60;;;;;;;13.22;89.81;100093.81;99836;1262;139781;-72
2022/10/23 03:05:55;;;;;;;38.20;23.10;;;;;;;13.22;89.78;100093.48;99786;1292;107758;-72
2022/10/23 03:08:23;;;;;;;37.30;22.20;;;;;;;13.22;89.65;100094.00;99784;1301;96519;-72
2022/10/23 03:10:51;;;;;;;36.80;22.20;;;;;;;13.21;89.70;100093.35;100161;1294;138102;-71
2022/10/23 03:13:19;;;;;;;32.10;22.10;;;;;;;13.23;89.81;100094.85;99783;1297;107059;-72
2022/10/23 03:15:46;;;;;;;35.60;22.20;;;;;;;13.23;89.74;100094.81;99732;1288;138834;-72
2022/10/23 03:18:14;;;;;;;38.40;23.30;;;;;;;13.24;89.75;100095.33;99772;1300;107918;-72
2022/10/23 03:20:45;;;;;;;36.80;22.80;;;;;;;13.24;89.73;100095.11;99905;1294;96585;-72
2022/10/23 03:23:15;;;;;;;32.50;22.10;;;;;;;13.25;89.86;100097.33;99777;1294;138091;-72
2022/10/23 03:25:42;;;;;;;35.30;23.00;;;;;;;13.27;89.82;100095.16;99843;1293;107035;-72
2022/10/23 03:28:15;;;;;;;38.40;24.00;;;;;;;13.28;89.72;100100.38;99643;1300;138215;-72
2022/10/23 03:30:42;;;;;;;42.30;23.50;;;;;;;13.28;89.70;100097.76;99736;1300;106081;-72
2022/10/23 03:33:09;;;;;;;35.20;22.20;;;;;;;13.31;89.89;100101.13;99816;1294;96496;-72
2022/10/23 03:35:36;;;;;;;35.50;23.70;;;;;;;13.34;89.72;100099.60;99640;1296;138133;-72
2022/10/23 03:38:04;;;;;;;38.00;24.00;;;;;;;13.35;89.53;100096.42;99777;1287;108054;-72
2022/10/23 03:40:31;;;;;;;35.30;22.70;;;;;;;13.33;89.26;100095.10;99728;1300;140686;-72
2022/10/23 03:42:58;;;;;;;36.40;22.40;;;;;;;13.28;89.17;100097.39;99725;1300;108440;-72
2022/10/23 03:45:25;;;;;;;37.20;23.20;;;;;;;13.26;89.15;100099.95;99682;1294;140285;-72
2022/10/23 03:47:52;;;;;;;37.90;24.10;;;;;;;13.25;89.28;100105.72;99884;1293;110054;-72
2022/10/23 03:50:20;;;;;;;37.40;23.20;;;;;;;13.24;89.30;100101.92;99735;1301;107377;-72
2022/10/23 03:52:47;;;;;;;39.00;23.00;;;;;;;13.25;89.36;100106.42;99632;1297;138311;-72
2022/10/23 03:55:14;;;;;;;32.80;21.40;;;;;;;13.26;89.38;100108.48;99707;1297;108896;-72
2022/10/23 03:57:41;;;;;;;36.90;22.30;;;;;;;13.25;89.14;100110.25;99752;1300;138781;-72
2022/10/23 04:00:11;;;;;;;32.80;22.30;;;;;;;13.24;89.13;100111.73;99760;1292;109479;-72
2022/10/23 04:02:45;;;;;;;38.90;23.60;;;;;;;13.22;89.23;100122.45;99855;1299;107807;-72
2022/10/23 04:05:13;;;;;;;38.40;22.30;;;;;;;13.21;89.23;100126.86;99714;1301;138831;-72
2022/10/23 04:07:41;;;;;;;35.10;22.20;;;;;;;13.23;89.30;100132.53;99810;1298;107949;-72
2022/10/23 04:10:10;;;;;;;37.40;22.00;;;;;;;13.24;89.23;100139.30;99754;1293;138326;-72
2022/10/23 04:12:38;;;;;;;33.70;21.80;;;;;;;13.23;89.07;100144.57;99835;1294;110969;-72
2022/10/23 04:15:06;;;;;;;35.30;24.10;;;;;;;13.23;89.13;100145.11;99777;1301;107938;-72
2022/10/23 04:17:33;;;;;;;33.30;21.90;;;;;;;13.23;88.99;100149.85;99837;1293;139187;-72
2022/10/23 04:20:00;;;;;;;40.50;22.50;;;;;;;13.19;88.84;100149.13;99800;1297;107484;-72
2022/10/23 04:22:27;;;;;;;34.30;22.40;;;;;;;13.15;88.76;100146.15;99640;1301;138373;-72
2022/10/23 04:24:55;;;;;;;33.00;22.10;;;;;;;13.13;88.90;100144.33;99828;1300;110854;-72
2022/10/23 04:27:22;;;;;;;32.60;22.00;;;;;;;13.11;88.95;100147.22;99659;1297;140139;-73
2022/10/23 04:29:49;;;;;;;35.80;21.50;;;;;;;13.09;88.82;100151.13;99856;1301;98099;-71
2022/10/23 04:32:20;;;;;;;36.20;22.00;;;;;;;13.05;88.73;100151.83;99878;1300;108040;-72
2022/10/23 04:34:47;;;;;;;33.00;21.00;;;;;;;13.01;88.59;100154.08;99692;1301;140135;-71
2022/10/23 04:37:14;;;;;;;39.30;21.50;;;;;;;12.97;88.76;100156.37;99805;1294;109654;-72
2022/10/23 04:39:43;;;;;;;35.50;20.00;;;;;;;12.94;88.84;100159.83;99651;1300;138429;-72
2022/10/23 04:42:12;;;;;;;38.20;22.50;;;;;;;12.93;88.81;100161.63;99746;1294;96510;-72
2022/10/23 04:44:40;;;;;;;42.10;23.40;;;;;;;12.90;88.76;100159.11;99804;1294;107939;-72
2022/10/23 04:47:07;;;;;;;44.40;23.50;;;;;;;12.87;88.73;100158.22;99650;1300;138280;-72
2022/10/23 04:49:43;;;;;;;37.20;23.00;;;;;;;12.83;88.66;100164.67;99759;1293;109756;-73
2022/10/23 04:52:19;;;;;;;37.10;22.90;;;;;;;12.77;88.68;100169.45;99682;1293;138274;-72
2022/10/23 04:55:06;;;;;;;36.90;21.50;;;;;;;12.73;88.77;100170.67;99823;1293;96544;-72
2022/10/23 04:57:51;;;;;;;37.30;21.60;;;;;;;12.70;88.89;100172.34;99981;1300;138443;-72
2022/10/23 05:00:22;;;;;;;33.70;21.30;;;;;;;12.69;89.05;100172.02;99682;1296;96509;-72
2022/10/23 05:02:52;;;;;;;34.40;20.90;;;;;;;12.69;88.74;100172.93;99761;1293;110210;-72
2022/10/23 05:05:20;;;;;;;46.50;23.30;;;;;;;12.65;88.84;100173.09;99701;1290;139040;-72
2022/10/23 05:08:11;;;;;;;42.00;23.40;;;;;;;12.64;88.83;100171.05;99877;1292;95692;-72
2022/10/23 05:11:02;;;;;;;40.50;23.20;;;;;;;12.62;88.95;100171.14;99699;1293;137385;-72
2022/10/23 05:13:33;;;;;;;39.00;23.20;;;;;;;12.58;88.88;100170.98;99745;1300;96548;-73
2022/10/23 05:16:00;;;;;;;35.20;22.90;;;;;;;12.54;89.01;100172.65;99706;1301;138344;-72
2022/10/23 05:18:32;;;;;;;33.40;20.40;;;;;;;12.54;89.14;100172.84;99734;1298;107186;-73
2022/10/23 05:21:03;;;;;;;40.50;21.40;;;;;;;12.54;88.97;100175.98;99820;1300;96339;-73
2022/10/23 05:23:33;;;;;;;36.20;20.90;;;;;;;12.52;89.01;100175.02;99675;1287;137858;-73
2022/10/23 05:26:02;;;;;;;39.30;22.30;;;;;;;12.52;88.91;100178.17;99798;1298;97112;-73
2022/10/23 05:28:31;;;;;;;34.10;21.50;;;;;;;12.51;88.93;100182.05;99622;1300;138244;-73
2022/10/23 05:31:00;;;;;;;35.00;21.20;;;;;;;12.50;89.02;100182.59;99706;1299;108114;-73
2022/10/23 05:33:29;;;;;;;36.90;21.50;;;;;;;12.51;89.00;100182.91;99681;1300;138415;-73
2022/10/23 05:35:57;;;;;;;35.40;21.70;;;;;;;12.52;89.06;100186.02;99748;1294;106914;-73
2022/10/23 05:38:26;;;;;;;42.10;22.90;;;;;;;12.54;89.12;100185.93;99866;1294;96537;-74
2022/10/23 05:40:54;;;;;;;38.90;23.00;;;;;;;12.53;88.96;100193.64;99679;1299;138578;-73
2022/10/23 05:43:22;;;;;;;37.90;23.50;;;;;;;12.49;88.97;100195.02;99709;1301;107514;-73
2022/10/23 05:46:07;;;;;;;45.80;22.30;;;;;;;12.47;88.88;100194.96;99645;1297;138252;-74
2022/10/23 05:48:54;;;;;;;36.80;23.30;;;;;;;12.42;88.94;100198.13;99743;1294;107450;-73
2022/10/23 05:51:39;;;;;;;37.50;23.50;;;;;;;12.38;89.03;100202.79;99712;1294;139168;-73
2022/10/23 05:54:27;;;;;;;41.30;23.30;;;;;;;12.35;89.08;100203.60;99796;1305;108875;-73
2022/10/23 05:57:01;;;;;;;35.30;22.20;;;;;;;12.34;89.13;100200.00;99763;1294;107546;-72
2022/10/23 05:59:49;;;;;;;39.80;22.60;;;;;;;12.35;89.28;100203.42;99752;1295;96476;-74
2022/10/23 06:02:39;;;;;;;35.60;21.70;;;;;;;12.36;89.10;100200.27;99789;1290;108430;-73
2022/10/23 06:05:25;;;;;;;36.00;21.70;;;;;;;12.35;89.03;100194.39;99630;1287;139225;-73
2022/10/23 06:08:10;;;;;;;32.20;20.70;;;;;;;12.33;88.87;100197.44;99905;1294;110200;-72
2022/10/23 06:10:37;;;;;;;38.50;20.80;;;;;;;12.32;88.90;100194.86;99746;1290;139891;-73
2022/10/23 06:13:06;;;;;;;37.00;21.20;;;;;;;12.31;88.71;100200.30;99945;1300;96598;-72
2022/10/23 06:15:33;;;;;;;36.10;22.60;;;;;;;12.35;88.93;100206.07;99796;1294;138337;-73
2022/10/23 06:18:09;;;;;;;37.60;22.10;;;;;;;12.36;88.76;100209.48;99913;1292;96480;-73
2022/10/23 06:20:44;;;;;;;38.40;22.20;;;;;;;12.38;88.81;100215.36;99818;1287;109545;-73
2022/10/23 06:23:17;;;;;;;32.10;21.00;;;;;;;12.42;88.66;100216.44;99741;1297;138205;-73
2022/10/23 06:26:00;;;;;;;33.80;19.80;;;;;;;12.41;88.35;100224.85;99844;1292;96784;-73
2022/10/23 06:28:45;;;;;;;32.30;19.40;;;;;;;12.44;88.32;100225.61;99662;1293;138250;-73
2022/10/23 06:31:17;;;;;;;28.80;19.10;;;;;;;12.47;88.25;100227.19;99805;1294;96494;-73
2022/10/23 06:33:46;;;;;;;33.50;19.30;;;;;;;12.57;88.30;100223.66;99741;1295;138872;-73
2022/10/23 06:36:13;;;;;;;30.70;19.30;;;;;;;12.69;87.90;100222.80;99795;1294;107520;-72
2022/10/23 06:38:41;;;;;;;33.10;19.70;;;;;;;12.80;87.42;100220.29;99874;1300;96938;-73
2022/10/23 06:41:12;;;;;;;29.20;18.10;;;;;;;12.95;87.27;100219.27;99692;1296;138305;-72
2022/10/23 06:43:39;;;;;;;31.50;19.00;;;;;;;13.22;86.95;100227.40;99886;1285;97113;-72
2022/10/23 06:46:15;;;;;;;31.10;18.80;;;;;;;13.52;86.58;100231.67;99726;1300;137553;-73
2022/10/23 06:49:01;;;;;;;32.10;18.80;;;;;;;13.82;85.86;100239.91;99878;1297;109013;-73
2022/10/23 06:51:32;;;;;;;30.30;19.80;;;;;;;14.00;84.83;100237.38;99788;1302;137851;-73
2022/10/23 06:53:59;;;;;;;31.60;21.30;;;;;;;14.00;84.14;100240.86;99804;1293;107533;-73
2022/10/23 06:56:50;;;;;;;30.60;19.40;;;;;;;13.93;83.79;100255.34;99761;1295;96589;-72
2022/10/23 06:59:20;;;;;;;28.00;18.40;;;;;;;13.85;83.50;100253.45;99659;1294;138237;-73
2022/10/23 07:01:49;;;;;;;35.90;20.30;;;;;;;13.77;83.42;100254.10;99919;1292;107177;-73
2022/10/23 07:04:17;;;;;;;31.40;20.20;;;;;;;13.78;83.69;100253.73;99805;1294;136928;-73
2022/10/23 07:06:44;;;;;;;34.30;19.40;;;;;;;13.81;83.89;100255.68;99804;1298;108181;-73
2022/10/23 07:09:12;;;;;;;32.70;20.20;;;;;;;13.80;83.63;100249.27;99902;1292;97880;-73
2022/10/23 07:11:51;;;;;;;33.30;20.60;;;;;;;13.73;83.53;100253.10;99896;1292;111002;-73
2022/10/23 07:14:22;;;;;;;32.40;20.70;;;;;;;13.70;83.95;100246.95;99864;1301;107508;-73
2022/10/23 07:16:49;;;;;;;35.50;20.90;;;;;;;13.67;84.03;100247.46;99651;1301;137870;-73
2022/10/23 07:19:18;;;;;;;31.70;20.10;;;;;;;13.63;83.79;100250.23;99855;1292;107359;-73
2022/10/23 07:21:56;;;;;;;32.90;20.50;;;;;;;13.59;83.85;100253.20;99707;1301;138416;-73
2022/10/23 07:24:37;;;;;;;32.70;19.70;;;;;;;13.54;83.92;100250.81;99847;1297;108282;-73
2022/10/23 07:27:12;;;;;;;34.90;20.10;;;;;;;13.52;84.04;100254.02;99814;1300;105897;-74
2022/10/23 07:29:40;;;;;;;34.40;19.80;;;;;;;13.50;84.08;100251.49;99728;1292;137702;-73
2022/10/23 07:32:10;;;;;;;29.40;21.10;;;;;;;13.46;84.11;100251.33;99869;1292;107522;-75
2022/10/23 07:34:57;;;;;;;32.80;20.50;;;;;;;13.43;84.19;100248.86;99762;1294;137609;-73
2022/10/23 07:37:32;;;;;;;32.30;20.40;;;;;;;13.38;84.46;100254.51;99717;1295;109713;-74
2022/10/23 07:40:01;;;;;;;35.50;20.00;;;;;;;13.37;84.88;100253.48;99668;1300;139379;-74
2022/10/23 07:42:30;;;;;;;34.90;20.40;;;;;;;13.41;85.09;100245.27;99727;1295;96617;-72
2022/10/23 07:44:57;;;;;;;29.90;19.30;;;;;;;13.45;85.12;100241.95;99873;1297;107298;-73
2022/10/23 07:47:25;;;;;;;29.30;19.10;;;;;;;13.52;85.26;100239.89;99624;1297;140020;-74
2022/10/23 07:49:52;;;;;;;30.30;19.70;;;;;;;13.60;84.96;100240.05;99756;1287;110972;-74
2022/10/23 07:52:20;;;;;;;27.40;18.80;;;;;;;13.73;85.08;100240.16;99756;1301;137897;-73
2022/10/23 07:55:11;;;;;;;26.70;18.70;;;;;;;14.07;85.15;100228.30;99765;1302;96344;-73
2022/10/23 07:57:54;;;;;;;28.50;18.60;;;;;;;14.45;85.05;100228.94;99753;1292;137523;-73
2022/10/23 08:00:38;;;;;;;30.90;19.50;;;;;;;14.73;84.41;100227.92;99785;1295;96482;-72
2022/10/23 08:03:19;;;;;;;28.10;18.70;;;;;;;14.76;83.43;100226.39;99780;1298;108987;-72
2022/10/23 08:05:46;;;;;;;35.80;19.20;;;;;;;14.72;83.18;100226.58;99645;1293;137571;-72
2022/10/23 08:08:14;;;;;;;28.60;18.60;;;;;;;14.68;83.32;100225.35;99761;1300;96472;-72
2022/10/23 08:10:43;;;;;;;32.50;18.10;;;;;;;14.68;83.22;100227.32;99678;1297;138184;-73
2022/10/23 08:13:14;;;;;;;27.90;18.60;;;;;;;14.65;83.11;100226.73;99944;1297;96600;-72
2022/10/23 08:15:55;;;;;;;28.30;18.10;;;;;;;14.65;83.12;100226.05;99696;1299;138589;-73
2022/10/23 08:18:49;;;;;;;28.20;18.40;;;;;;;14.64;82.72;100222.25;99632;1292;108078;-72
2022/10/23 08:21:17;;;;;;;27.50;18.60;;;;;;;14.62;82.81;100226.03;99978;1290;96805;-72
2022/10/23 08:23:46;;;;;;;27.50;18.40;;;;;;;14.59;82.71;100224.94;99870;1298;137354;-72
2022/10/23 08:26:13;;;;;;;27.90;18.20;;;;;;;14.57;82.93;100223.13;99974;1295;95122;-72
2022/10/23 08:28:40;;;;;;;25.30;17.00;;;;;;;14.57;82.90;100230.33;99866;1297;137391;-73
2022/10/23 08:31:13;;;;;;;27.70;17.50;;;;;;;14.53;82.97;100236.09;99790;1300;107852;-73
2022/10/23 08:33:42;;;;;;;27.00;17.20;;;;;;;14.51;83.15;100240.20;99739;1297;139830;-72
2022/10/23 08:36:18;;;;;;;23.90;15.80;;;;;;;14.49;83.13;100242.38;99898;1302;107836;-72
2022/10/23 08:38:46;;;;;;;28.50;17.90;;;;;;;14.45;83.25;100243.80;99870;1292;96595;-72
2022/10/23 08:41:26;;;;;;;30.60;19.90;;;;;;;14.42;83.33;100243.76;99862;1297;137836;-72
2022/10/23 08:44:11;;;;;;;32.10;20.00;;;;;;;14.40;83.44;100249.97;99864;1300;107482;-72
2022/10/23 08:46:45;;;;;;;35.00;21.30;;;;;;;14.38;83.61;100246.91;99708;1298;137656;-73
2022/10/23 08:49:31;;;;;;;32.40;20.30;;;;;;;14.38;83.90;100249.38;99880;1298;107119;-72
2022/10/23 08:52:07;;;;;;;34.80;20.30;;;;;;;14.43;84.15;100247.77;99676;1298;138755;-73
2022/10/23 08:54:46;;;;;;;39.50;20.50;;;;;;;14.50;84.33;100247.06;99887;1293;110122;-73
2022/10/23 08:57:16;;;;;;;33.10;19.70;;;;;;;14.57;84.17;100246.96;99831;1284;107857;-73
2022/10/23 08:59:49;;;;;;;32.70;20.50;;;;;;;14.60;84.12;100249.56;99791;1290;138787;-73
2022/10/23 09:02:21;;;;;;;33.00;20.30;;;;;;;14.64;84.20;100253.38;99961;1298;107544;-74
2022/10/23 09:04:51;;;;;;;30.40;20.30;;;;;;;14.64;84.23;100254.97;99758;1296;138424;-74
2022/10/23 09:07:32;;;;;;;28.80;18.80;;;;;;;14.66;84.20;100244.04;99985;1297;110829;-73
2022/10/23 09:10:15;;;;;;;32.80;20.00;;;;;;;14.70;84.21;100246.42;99784;1284;138069;-73
2022/10/23 09:12:43;;;;;;;29.50;19.80;;;;;;;14.74;84.17;100245.58;99971;1293;96509;-73
2022/10/23 09:15:20;;;;;;;32.10;20.10;;;;;;;14.77;84.15;100243.33;99932;1291;107067;-73
2022/10/23 09:17:46;;;;;;;;;;;;;;;14.81;84.12;100245.00;99827;1297;137574;-73
2022/10/23 09:20:21;;;;;;;31.50;18.90;;;;;;;14.84;83.90;100244.20;99972;1292;110155;-72
2022/10/23 09:22:50;;;;;;;29.20;18.90;;;;;;;14.83;83.88;100239.35;99711;1296;138117;-72
2022/10/23 09:25:25;;;;;;;34.70;18.30;;;;;;;14.84;83.83;100239.12;99849;1299;96378;-72
2022/10/23 09:27:53;;;;;;;30.30;18.70;;;;;;;14.88;83.85;100243.11;100317;1295;138329;-73
2022/10/23 09:30:33;;;;;;;26.70;17.80;;;;;;;14.92;83.86;100249.02;99896;1297;96463;-72
2022/10/23 09:33:01;;;;;;;27.00;17.50;;;;;;;14.93;83.53;100259.65;99897;1299;109365;-73
2022/10/23 09:35:30;;;;;;;24.90;17.20;;;;;;;14.93;83.55;100260.23;99738;1291;139072;-74
2022/10/23 09:37:58;;;;;;;26.30;16.50;;;;;;;14.95;83.39;100261.83;99859;1291;97025;-73
2022/10/23 09:40:33;;;;;;;24.10;15.40;;;;;;;14.96;83.05;100264.41;99814;1297;137402;-73
2022/10/23 09:43:02;;;;;;;28.10;17.10;;;;;;;14.95;82.84;100259.06;99922;1297;96431;-74
2022/10/23 09:45:32;;;;;;;30.90;17.40;;;;;;;14.95;82.96;100255.54;99668;1295;138540;-73
2022/10/23 09:48:15;;;;;;;27.80;16.60;;;;;;;15.00;83.01;100258.79;99693;1302;108096;-74
2022/10/23 09:50:50;;;;;;;25.30;15.00;;;;;;;15.04;82.73;100256.84;99912;1292;97141;-73
2022/10/23 09:53:31;;;;;;;30.10;16.80;;;;;;;15.05;82.67;100252.05;99806;1294;138729;-74
2022/10/23 09:56:01;;;;;;;26.60;15.90;;;;;;;15.11;82.77;100251.05;99885;1285;96472;-74
2022/10/23 09:58:33;;;;;;;27.10;17.20;;;;;;;15.18;82.58;100250.54;99853;1297;138096;-73
2022/10/23 10:01:01;;;;;;;31.90;18.30;;;;;;;15.23;82.54;100247.27;99877;1292;107082;-74
2022/10/23 10:03:50;;;;;;;24.70;16.40;;;;;;;15.26;82.24;100249.40;99698;1301;137925;-73
2022/10/23 10:06:26;;;;;;;29.60;17.80;;;;;;;15.25;82.13;100247.89;99809;1293;107487;-74
2022/10/23 10:08:56;;;;;;;27.30;17.20;;;;;;;15.24;82.37;100244.41;99785;1302;96501;-74
2022/10/23 10:11:31;;;;;;;26.80;18.10;;;;;;;15.24;82.19;100244.06;100292;1300;138316;-73
2022/10/23 10:14:31;;;;;;;26.20;16.20;;;;;;;15.23;82.19;100245.70;99786;1294;107832;-73
2022/10/23 10:17:05;;;;;;;26.50;15.80;;;;;;;15.21;82.08;100244.04;99675;1301;138342;-73
2022/10/23 10:19:47;;;;;;;28.90;17.40;;;;;;;15.20;82.14;100244.66;99789;1293;106959;-73
2022/10/23 10:22:28;;;;;;;25.20;15.30;;;;;;;15.18;82.17;100248.06;99710;1302;138308;-73
2022/10/23 10:25:03;;;;;;;25.70;15.70;;;;;;;15.15;82.18;100250.89;99760;1300;110094;-74
2022/10/23 10:27:44;;;;;;;24.30;16.40;;;;;;;15.12;82.50;100250.83;99625;1299;139429;-73
2022/10/23 10:30:18;;;;;;;25.40;14.90;;;;;;;15.13;82.53;100255.38;99783;1300;97036;-73
2022/10/23 10:32:53;;;;;;;22.90;14.00;;;;;;;15.13;82.66;100257.81;99698;1299;105825;-74
2022/10/23 10:35:37;;;;;;;24.00;14.60;;;;;;;15.13;82.52;100256.93;99646;1302;139157;-74
2022/10/23 10:38:36;;;;;;;23.90;14.70;;;;;;;15.08;82.43;100257.47;99981;1293;109434;-74
2022/10/23 10:41:23;;;;;;;17.50;13.20;;;;;;;15.07;82.55;100249.46;99607;1298;139089;-73
2022/10/23 10:44:01;;;;;;;17.60;12.60;;;;;;;15.07;82.40;100253.67;99801;1295;96473;-73
2022/10/23 10:46:37;;;;;;;18.30;11.90;;;;;;;15.08;82.34;100249.45;99627;1299;139955;-73
2022/10/23 10:49:10;;;;;;;17.10;11.10;;;;;;;15.10;82.24;100242.17;100386;1293;96604;-73
2022/10/23 10:52:16;;;;;;;19.30;11.10;;;;;;;15.15;82.25;100239.14;99661;1303;138389;-74
2022/10/23 10:54:56;;;;;;;21.40;11.40;;;;;;;15.22;82.07;100238.95;99745;1295;107456;-73
2022/10/23 10:57:33;;;;;;;16.80;11.50;;;;;;;15.24;81.98;100236.88;99788;1299;96934;-73
2022/10/23 11:00:06;;;;;;;18.90;10.90;;;;;;;15.27;81.95;100231.15;99752;1300;105655;-74
2022/10/23 11:02:40;;;;;;;21.40;11.90;;;;;;;15.27;81.85;100240.27;100054;1297;95728;-73
2022/10/23 11:05:18;;;;;;;20.50;12.50;;;;;;;15.25;81.95;100246.64;100864;1294;137842;-73
2022/10/23 11:07:58;;;;;;;18.20;11.70;;;;;;;15.23;81.88;100240.83;99856;1292;108018;-73
2022/10/23 11:10:27;;;;;;;17.90;11.00;;;;;;;15.22;81.76;100240.86;99627;1294;138314;-73
2022/10/23 11:12:54;;;;;;;17.30;10.70;;;;;;;15.21;81.51;100242.30;99831;1294;108118;-73
2022/10/23 11:15:26;;;;;;;16.00;11.30;;;;;;;15.19;81.32;100238.23;99893;1300;96531;-73
2022/10/23 11:17:58;;;;;;;15.40;11.00;;;;;;;15.15;81.02;100237.23;99847;1301;109169;-73
2022/10/23 11:20:41;;;;;;;17.20;12.10;;;;;;;15.12;80.81;100233.14;99896;1300;106908;-73
2022/10/23 11:23:27;;;;;;;17.90;11.20;;;;;;;15.08;80.67;100227.02;99864;1286;139501;-73
2022/10/23 11:26:07;;;;;;;17.70;12.70;;;;;;;15.05;80.77;100225.42;99824;1290;107886;-73
2022/10/23 11:28:51;;;;;;;22.60;12.70;;;;;;;15.01;80.85;100232.31;99765;1293;137576;-73
2022/10/23 11:31:31;;;;;;;20.40;12.70;;;;;;;15.00;81.06;100233.04;99715;1300;109739;-73